Time;durP1;ratioP1;P1;durP2;ratioP2;P2;SDS_P1;SDS_P2;PMS_P1;PMS_P2;Temp;Humidity;BMP_temperature;BMP_pressure;BME280_temperature;BME280_humidity;BME280_pressure;Samples;Min_cycle;Max_cycle;Signal;HPM_P1;HPM_P2
2022/12/03 00:00:22;;;;;;;12.88;6.72;;;3.70;99.90;;;;;;6255274;22;20073;-92
2022/12/03 00:03:06;;;;;;;12.13;6.38;;;3.80;99.90;;;;;;6256875;22;20116;-93
2022/12/03 00:06:12;;;;;;;12.88;6.97;;;3.80;99.90;;;;;;6255848;22;20015;-93
2022/12/03 00:08:59;;;;;;;12.05;6.28;;;3.80;99.90;;;;;;6281408;22;20022;-93
2022/12/03 00:15:49;;;;;;;10.55;5.75;;;3.90;99.90;;;;;;6291084;22;20054;-92
2022/12/03 00:18:17;;;;;;;11.75;6.80;;;3.90;99.90;;;;;;6226709;22;20020;-93
2022/12/03 00:21:04;;;;;;;13.93;7.03;;;3.80;99.90;;;;;;6176461;22;20102;-92
2022/12/03 00:23:30;;;;;;;12.55;7.00;;;3.90;99.90;;;;;;6226161;22;20030;-92
2022/12/03 00:25:56;;;;;;;11.65;6.53;;;4.00;99.90;;;;;;6200487;22;20016;-92
2022/12/03 00:28:22;;;;;;;11.23;6.75;;;3.90;99.90;;;;;;6202431;22;20012;-92
2022/12/03 00:34:25;;;;;;;12.15;6.55;;;4.00;99.90;;;;;;6261893;22;20027;-92
2022/12/03 00:36:51;;;;;;;11.93;6.97;;;4.00;99.90;;;;;;6183635;22;20024;-93
2022/12/03 00:39:21;;;;;;;11.50;6.47;;;4.10;99.90;;;;;;6176935;22;20012;-92
2022/12/03 00:42:06;;;;;;;12.90;6.57;;;4.00;99.90;;;;;;6225207;22;20020;-92
2022/12/03 00:48:13;;;;;;;12.27;6.80;;;4.10;99.90;;;;;;6277314;22;20038;-92
2022/12/03 00:50:40;;;;;;;12.65;6.97;;;4.10;99.90;;;;;;6200147;22;20019;-92
2022/12/03 00:53:27;;;;;;;12.90;6.95;;;4.10;99.90;;;;;;6199964;22;20016;-91
2022/12/03 00:55:53;;;;;;;11.50;6.28;;;4.10;99.90;;;;;;6225727;22;20098;-92
2022/12/03 00:58:21;;;;;;;12.02;6.82;;;4.00;99.90;;;;;;6200551;22;20628;-92
2022/12/03 01:01:08;;;;;;;12.70;6.85;;;4.10;99.90;;;;;;6199635;22;20023;-92
2022/12/03 01:03:53;;;;;;;12.50;6.75;;;4.10;99.90;;;;;;6224860;22;20020;-91
2022/12/03 01:09:45;;;;;;;12.90;7.20;;;4.10;99.90;;;;;;6249829;22;20074;-93
2022/12/03 01:12:11;;;;;;;11.57;7.07;;;4.20;99.90;;;;;;6174893;22;20015;-92
2022/12/03 01:14:37;;;;;;;12.23;6.20;;;4.20;99.90;;;;;;6217168;22;20030;-93
2022/12/03 01:17:06;;;;;;;11.82;6.90;;;4.20;99.90;;;;;;6280447;22;20023;-92
2022/12/03 01:19:34;;;;;;;10.80;6.63;;;4.20;99.90;;;;;;6255583;22;20134;-93
2022/12/03 01:22:20;;;;;;;13.18;6.97;;;4.20;99.90;;;;;;6255325;22;20015;-92
2022/12/03 01:24:47;;;;;;;13.15;7.03;;;4.20;99.90;;;;;;6255736;22;20026;-93
2022/12/03 01:27:51;;;;;;;15.57;7.65;;;4.10;99.90;;;;;;6255271;22;20050;-93
2022/12/03 01:34:00;;;;;;;12.60;7.27;;;4.20;99.90;;;;;;6308063;22;20464;-91
2022/12/03 01:36:27;;;;;;;12.30;7.35;;;4.10;99.90;;;;;;6280080;22;20015;-94
2022/12/03 01:38:55;;;;;;;14.40;8.18;;;4.10;99.90;;;;;;6280245;22;20030;-92
2022/12/03 01:41:40;;;;;;;13.43;7.22;;;4.20;99.90;;;;;;6255138;22;20047;-92
2022/12/03 01:44:26;;;;;;;11.05;6.75;;;4.20;99.90;;;;;;6280661;22;20461;-93
2022/12/03 01:54:29;;;;;;;11.27;6.93;;;4.20;99.90;;;;;;6306244;22;20020;-93
2022/12/03 01:57:18;;;;;;;12.20;6.80;;;4.20;99.90;;;;;;6280206;22;20019;-92
2022/12/03 02:03:27;;;;;;;13.18;7.22;;;4.10;99.90;;;;;;6306848;22;20015;-92
2022/12/03 02:05:55;;;;;;;13.25;7.03;;;4.10;99.90;;;;;;6280561;22;20026;-93
2022/12/03 02:08:36;;;;;;;13.25;7.15;;;4.00;99.90;;;;;;6255535;22;20012;-94
2022/12/03 02:11:13;;;;;;;17.63;7.45;;;4.10;99.90;;;;;;6281105;22;20567;-93
2022/12/03 02:13:39;;;;;;;14.25;7.40;;;4.10;99.90;;;;;;6280505;22;20015;-93
2022/12/03 02:20:35;;;;;;;14.13;7.55;;;4.10;99.90;;;;;;6308391;22;20279;-93
2022/12/03 02:23:39;;;;;;;13.10;7.40;;;4.10;99.90;;;;;;6281400;22;20029;-92
2022/12/03 02:26:26;;;;;;;12.48;6.63;;;4.10;99.90;;;;;;6283599;22;20019;-93
2022/12/03 02:32:33;;;;;;;13.90;7.68;;;4.20;99.90;;;;;;6308389;22;20023;-94
2022/12/03 02:35:20;;;;;;;15.32;7.70;;;4.10;99.90;;;;;;6282489;22;20051;-93
2022/12/03 02:37:49;;;;;;;13.45;7.10;;;4.00;99.90;;;;;;6282172;22;20019;-92
2022/12/03 02:43:41;;;;;;;12.65;7.22;;;4.00;99.90;;;;;;6308170;22;20051;-92
2022/12/03 02:46:08;;;;;;;12.30;7.80;;;4.00;99.90;;;;;;6257798;22;20094;-92
2022/12/03 02:49:13;;;;;;;14.35;8.48;;;4.00;99.90;;;;;;6257549;22;20023;-92
2022/12/03 02:55:20;;;;;;;15.73;8.52;;;4.00;99.90;;;;;;6310243;22;20033;-93
2022/12/03 02:57:50;;;;;;;14.80;8.07;;;4.10;99.90;;;;;;6282436;22;20011;-93
2022/12/03 03:00:55;;;;;;;14.68;7.65;;;4.00;99.90;;;;;;6258647;22;20102;-93
2022/12/03 03:06:51;;;;;;;13.52;7.85;;;3.90;99.90;;;;;;6310045;22;20026;-92
2022/12/03 03:09:20;;;;;;;13.80;7.93;;;3.10;99.90;;;;;;6247696;22;20017;-92
2022/12/03 03:11:47;;;;;;;18.23;9.02;;;3.80;99.90;;;;;;6220746;23;20091;-93
2022/12/03 03:14:32;;;;;;;15.95;9.13;;;3.80;99.90;;;;;;6196309;23;20319;-93
2022/12/03 03:17:36;;;;;;;16.33;9.15;;;3.80;99.90;;;;;;6195147;23;20034;-93
2022/12/03 03:20:40;;;;;;;14.43;8.43;;;3.80;99.90;;;;;;6220432;23;20053;-92
2022/12/03 03:23:22;;;;;;;16.80;8.10;;;3.10;99.90;;;;;;6220350;23;20099;-92
2022/12/03 03:26:26;;;;;;;15.63;8.27;;;3.70;99.90;;;;;;6195853;23;20022;-92
2022/12/03 03:29:11;;;;;;;14.50;7.65;;;3.70;99.90;;;;;;6220979;23;20099;-92
2022/12/03 03:32:16;;;;;;;15.63;7.93;;;3.60;99.90;;;;;;6220770;23;20016;-92
2022/12/03 03:34:42;;;;;;;13.25;7.10;;;3.60;99.90;;;;;;6220495;23;20024;-92
2022/12/03 03:41:14;;;;;;;17.20;9.20;;;3.60;99.90;;;;;;6220375;23;20024;-93
2022/12/03 03:43:44;;;;;;;13.93;8.32;;;3.60;99.90;;;;;;6220997;23;20107;-93
2022/12/03 03:46:11;;;;;;;14.05;8.13;;;3.60;99.90;;;;;;6196358;23;20016;-93
2022/12/03 03:48:40;;;;;;;15.75;8.95;;;3.60;99.90;;;;;;6195728;23;20017;-93
2022/12/03 03:51:09;;;;;;;15.43;7.85;;;3.50;99.90;;;;;;6194982;23;20401;-92
2022/12/03 03:53:55;;;;;;;18.27;8.98;;;3.60;99.90;;;;;;6195123;23;20020;-93
2022/12/03 03:56:40;;;;;;;17.35;8.90;;;3.60;99.90;;;;;;6194947;23;20497;-92
2022/12/03 03:59:27;;;;;;;16.35;8.63;;;3.60;99.90;;;;;;6195141;23;20020;-92
2022/12/03 04:02:23;;;;;;;15.77;7.80;;;3.60;99.90;;;;;;6194721;23;20450;-91
2022/12/03 04:04:49;;;;;;;15.65;8.38;;;3.60;99.90;;;;;;6195109;23;20020;-93
2022/12/03 04:07:15;;;;;;;16.27;8.35;;;3.60;99.90;;;;;;6201347;22;20017;-92
2022/12/03 04:12:54;;;;;;;18.55;9.02;;;3.60;99.90;;;;;;6306821;22;20445;-93
2022/12/03 04:13:09;;;;;;;16.15;8.43;;;3.60;99.90;;;;;;6260302;22;20102;-93
2022/12/03 04:15:56;;;;;;;16.10;9.07;;;3.60;99.90;;;;;;6256190;22;20356;-92
2022/12/03 04:18:42;;;;;;;18.95;9.85;;;3.60;99.90;;;;;;6230215;22;20012;-94
2022/12/03 04:24:12;;;;;;;17.83;10.65;;;3.50;99.90;;;;;;6259541;22;20022;-93
2022/12/03 04:29:43;;;;;;;18.83;8.25;;;3.60;99.90;;;;;;6281055;22;20035;-94
2022/12/03 04:37:41;;;;;;;15.45;9.10;;;3.50;99.90;;;;;;6259669;22;20023;-93
2022/12/03 04:43:32;;;;;;;15.88;7.78;;;3.40;99.90;;;;;;6257939;22;20027;-92
2022/12/03 04:46:00;;;;;;;17.48;8.43;;;3.40;99.90;;;;;;6279727;22;20015;-93
2022/12/03 04:48:46;;;;;;;15.32;8.57;;;3.50;99.90;;;;;;6254690;22;20018;-92
2022/12/03 04:51:13;;;;;;;16.60;8.10;;;3.40;99.90;;;;;;6279904;22;20096;-92
2022/12/03 04:53:38;;;;;;;18.17;8.98;;;3.50;99.90;;;;;;6255117;22;20487;-93
2022/12/03 04:56:07;;;;;;;17.02;8.32;;;3.40;99.90;;;;;;6229763;22;20015;-93
2022/12/03 04:58:51;;;;;;;16.80;8.02;;;3.40;99.90;;;;;;6265139;22;20008;-91
2022/12/03 05:01:17;;;;;;;14.32;8.35;;;3.40;99.90;;;;;;6268485;22;20015;-91
2022/12/03 05:04:02;;;;;;;18.98;9.00;;;3.40;99.90;;;;;;6270982;22;20019;-91
2022/12/03 05:06:47;;;;;;;17.48;9.45;;;3.40;99.90;;;;;;6267917;22;20019;-91
2022/12/03 05:09:18;;;;;;;15.02;8.65;;;3.30;99.90;;;;;;6275058;22;20055;-92
2022/12/03 05:11:45;;;;;;;17.65;9.57;;;3.40;99.90;;;;;;6225275;22;20042;-91
2022/12/03 05:14:32;;;;;;;16.48;8.57;;;3.30;99.90;;;;;;6250007;22;20132;-91
2022/12/03 05:20:41;;;;;;;14.70;8.07;;;3.30;99.90;;;;;;6274398;22;20110;-90
2022/12/03 05:23:09;;;;;;;18.02;8.18;;;3.30;99.90;;;;;;6249429;22;20016;-91
2022/12/03 05:25:37;;;;;;;15.40;8.80;;;3.30;99.90;;;;;;6274355;22;20446;-91
2022/12/03 05:28:07;;;;;;;16.83;8.40;;;3.30;99.90;;;;;;6248131;22;20165;-91
2022/12/03 05:30:34;;;;;;;16.33;8.70;;;3.30;99.90;;;;;;6246526;22;20020;-90
2022/12/03 05:33:00;;;;;;;15.70;9.27;;;3.30;99.90;;;;;;6247572;22;20042;-91
2022/12/03 05:35:26;;;;;;;17.00;9.35;;;3.30;99.90;;;;;;6247880;22;20019;-91
2022/12/03 05:37:52;;;;;;;16.27;9.13;;;3.30;99.90;;;;;;6248243;22;20087;-91
2022/12/03 05:40:38;;;;;;;17.02;9.10;;;3.30;99.90;;;;;;6249617;22;20051;-91
2022/12/03 05:43:05;;;;;;;18.48;9.10;;;3.30;99.90;;;;;;6246450;22;20022;-91
2022/12/03 05:45:51;;;;;;;16.73;9.35;;;3.30;99.90;;;;;;6248834;22;20012;-92
2022/12/03 05:52:00;;;;;;;17.48;8.63;;;3.30;99.90;;;;;;6275661;22;20022;-91
2022/12/03 05:54:26;;;;;;;19.38;9.55;;;3.20;99.90;;;;;;6248958;22;20019;-91
2022/12/03 05:57:10;;;;;;;15.32;7.50;;;3.20;99.90;;;;;;6223569;22;20534;-92
2022/12/03 06:00:00;;;;;;;16.42;9.10;;;3.20;99.90;;;;;;6251163;22;20054;-92
2022/12/03 06:02:28;;;;;;;16.33;8.57;;;3.20;99.90;;;;;;6250799;22;20110;-92
2022/12/03 06:05:14;;;;;;;16.10;8.20;;;3.20;99.90;;;;;;6225422;22;20016;-91
2022/12/03 06:07:40;;;;;;;16.27;8.65;;;3.30;99.90;;;;;;6251947;22;20035;-90
2022/12/03 06:10:57;;;;;;;16.90;7.82;;;3.30;99.90;;;;;;6281851;22;20033;-92
2022/12/03 06:13:25;;;;;;;17.50;8.98;;;3.30;99.90;;;;;;6281579;22;20047;-93
2022/12/03 06:16:15;;;;;;;17.70;9.43;;;3.30;99.90;;;;;;6256143;22;20007;-92
2022/12/03 06:18:42;;;;;;;14.57;7.85;;;3.30;99.90;;;;;;6255467;22;20012;-92
2022/12/03 06:21:27;;;;;;;15.43;8.27;;;3.30;99.90;;;;;;6256141;22;20422;-91
2022/12/03 06:23:55;;;;;;;14.65;7.68;;;3.30;99.90;;;;;;6255761;22;20090;-90
2022/12/03 06:26:22;;;;;;;17.85;8.27;;;3.20;99.90;;;;;;6255837;22;20015;-90
2022/12/03 06:28:48;;;;;;;13.85;7.05;;;3.20;99.90;;;;;;6255496;22;20019;-91
2022/12/03 06:31:35;;;;;;;15.77;8.15;;;3.20;99.90;;;;;;6280854;22;20345;-92
2022/12/03 06:34:40;;;;;;;13.25;6.90;;;3.10;99.90;;;;;;6255514;22;20011;-91
2022/12/03 06:37:44;;;;;;;17.42;8.10;;;3.20;99.90;;;;;;6280446;22;20015;-90
2022/12/03 06:40:15;;;;;;;14.77;7.75;;;3.10;99.90;;;;;;6281150;22;20012;-91
2022/12/03 06:42:42;;;;;;;16.35;7.68;;;3.20;99.90;;;;;;6256230;22;20059;-92
2022/12/03 06:48:31;;;;;;;15.50;8.02;;;3.10;99.90;;;;;;6281623;22;20019;-91
2022/12/03 06:50:57;;;;;;;17.05;8.23;;;3.10;99.90;;;;;;6230473;22;20026;-91
2022/12/03 06:53:24;;;;;;;14.32;7.50;;;3.10;99.90;;;;;;6281083;22;20313;-91
2022/12/03 06:55:51;;;;;;;16.35;8.05;;;3.10;99.90;;;;;;6255987;22;20018;-91
2022/12/03 06:58:57;;;;;;;16.63;7.88;;;3.00;99.90;;;;;;6255610;22;20048;-92
2022/12/03 07:01:24;;;;;;;16.27;8.15;;;3.00;99.90;;;;;;6281767;22;20047;-91
2022/12/03 07:07:25;;;;;;;14.65;7.82;;;3.00;99.90;;;;;;6280949;22;20019;-92
2022/12/03 07:09:51;;;;;;;16.63;7.88;;;3.10;99.90;;;;;;6224080;22;20026;-92
2022/12/03 07:12:36;;;;;;;13.15;6.72;;;2.90;99.90;;;;;;6225190;22;20016;-91
2022/12/03 07:15:23;;;;;;;16.98;8.48;;;3.00;99.90;;;;;;6249866;22;20102;-91
2022/12/03 07:17:51;;;;;;;14.13;7.53;;;3.00;99.90;;;;;;6249811;22;20426;-92
2022/12/03 07:20:17;;;;;;;17.30;7.88;;;3.00;99.90;;;;;;6224293;22;20019;-91
2022/12/03 07:23:03;;;;;;;16.63;8.13;;;3.00;99.90;;;;;;6249413;22;20012;-91
2022/12/03 07:25:31;;;;;;;14.90;7.65;;;3.00;99.90;;;;;;6249395;22;20384;-91
2022/12/03 07:28:28;;;;;;;;;;;;;;;;;;;;;
2022/12/03 07:31:01;;;;;;;17.67;7.93;;;3.00;99.90;;;;;;6274107;22;20022;-90
2022/12/03 07:33:37;;;;;;;;;;;;;;;;;;;;;
2022/12/03 07:36:32;;;;;;;;;;;;;;;;;;;;;
2022/12/03 07:39:41;;;;;;;13.88;7.50;;;2.90;99.90;;;;;;6274134;22;20051;-90
2022/12/03 07:42:31;;;;;;;;;;;;;;;;;;;;;
2022/12/03 07:45:15;;;;;;;16.27;8.65;;;2.90;99.90;;;;;;6271272;22;20213;-90
2022/12/03 07:48:06;;;;;;;;;;;;;;;;;;;;;
2022/12/03 07:50:44;;;;;;;;;;;;;;;;;;;;;
2022/12/03 07:53:38;;;;;;;;;;;;;;;;;;;;;
2022/12/03 07:56:41;;;;;;;;;;;;;;;;;;;;;
2022/12/03 07:59:29;;;;;;;;;;;;;;;;;;;;;
2022/12/03 08:02:31;;;;;;;;;;;;;;;;;;;;;
2022/12/03 08:05:13;;;;;;;17.77;8.30;;;2.80;99.90;;;;;;6186061;23;20096;-91
2022/12/03 08:08:25;;;;;;;;;;;;;;;;;;;;;
2022/12/03 08:11:29;;;;;;;;;;;;;;;;;;;;;
2022/12/03 08:14:21;;;;;;;21.52;8.18;;;2.70;99.90;;;;;;6186606;23;20471;-91
2022/12/03 08:17:26;;;;;;;;;;;;;;;;;;;;;
2022/12/03 08:20:41;;;;;;;;;;;;;;;;;;;;;
2022/12/03 08:24:09;;;;;;;14.97;8.37;;;2.70;99.90;;;;;;6185748;23;20020;-92
2022/12/03 08:27:43;;;;;;;;;;;;;;;;;;;;;
2022/12/03 08:30:30;;;;;;;;;;;;;;;;;;;;;
2022/12/03 08:33:34;;;;;;;16.85;8.27;;;3.00;99.90;;;;;;6183603;23;20025;-92
2022/12/03 08:36:25;;;;;;;17.73;8.55;;;2.70;99.90;;;;;;6171456;23;20023;-92
2022/12/03 08:42:42;;;;;;;20.70;9.73;;;4.00;99.90;;;;;;6277590;22;20225;-94
2022/12/03 08:45:40;;;;;;;18.42;9.27;;;2.60;99.90;;;;;;6251241;22;20479;-93
2022/12/03 08:58:55;;;;;;;16.73;9.02;;;2.60;99.90;;;;;;6273641;22;20019;-92
2022/12/03 09:01:45;;;;;;;16.20;8.43;;;2.50;99.90;;;;;;6249492;22;20026;-91
2022/12/03 09:04:18;;;;;;;21.63;9.93;;;2.40;99.90;;;;;;6249652;22;20303;-92
2022/12/03 09:06:46;;;;;;;19.65;8.68;;;2.70;99.90;;;;;;6249016;22;20016;-93
2022/12/03 09:09:12;;;;;;;20.23;9.40;;;2.60;99.90;;;;;;6249722;22;20023;-92
2022/12/03 09:12:08;;;;;;;18.85;9.93;;;2.40;99.90;;;;;;6249527;22;20030;-92
2022/12/03 09:14:34;;;;;;;19.98;9.80;;;2.50;99.90;;;;;;6275274;22;20019;-94
2022/12/03 09:17:39;;;;;;;19.48;9.27;;;2.40;99.90;;;;;;6250094;22;20089;-92
2022/12/03 09:20:09;;;;;;;18.70;8.85;;;2.50;99.90;;;;;;6250063;22;20090;-91
2022/12/03 09:23:13;;;;;;;18.17;9.15;;;2.30;99.90;;;;;;6249945;22;20020;-91
2022/12/03 09:25:43;;;;;;;17.65;9.93;;;2.60;99.90;;;;;;6246301;22;20584;-92
2022/12/03 09:28:19;;;;;;;18.55;9.23;;;2.60;99.90;;;;;;6250505;22;20016;-92
2022/12/03 09:30:47;;;;;;;21.73;10.45;;;2.50;99.90;;;;;;6249079;22;20114;-92
2022/12/03 09:33:15;;;;;;;21.52;10.52;;;2.50;99.90;;;;;;6248469;22;20020;-93
2022/12/03 09:35:44;;;;;;;13.95;8.55;;;2.40;99.90;;;;;;6247814;22;20367;-93
2022/12/03 09:38:17;;;;;;;18.48;9.90;;;2.40;99.90;;;;;;6247291;22;20015;-93
2022/12/03 09:40:46;;;;;;;20.23;9.45;;;2.40;99.90;;;;;;6247678;22;20023;-93
2022/12/03 09:43:33;;;;;;;21.05;10.68;;;3.70;99.90;;;;;;6249126;22;20055;-92
2022/12/03 09:46:18;;;;;;;21.17;10.45;;;2.70;99.90;;;;;;6249230;22;20572;-93
2022/12/03 09:48:45;;;;;;;21.73;10.25;;;2.40;99.90;;;;;;6266287;22;20346;-93
2022/12/03 09:57:27;;;;;;;19.02;8.77;;;;;;;;;;6223528;22;20016;-92
2022/12/03 09:59:59;;;;;;;21.30;9.43;;;2.40;99.90;;;;;;6201660;22;20108;-91
2022/12/03 10:02:30;;;;;;;19.13;9.07;;;2.50;99.90;;;;;;6226449;22;20020;-92
2022/12/03 10:05:06;;;;;;;18.42;8.57;;;2.30;99.90;;;;;;6232367;22;20067;-92
2022/12/03 10:07:34;;;;;;;19.00;8.82;;;2.30;99.90;;;;;;6251885;22;20022;-93
2022/12/03 10:10:24;;;;;;;17.60;8.40;;;2.30;99.90;;;;;;6255300;22;20326;-92
2022/12/03 10:41:55;;;;;;;;;;;;;;;;;;;;;
2022/12/03 10:44:44;;;;;;;20.25;10.32;;;2.40;99.90;;;;;;6344756;22;20006;-94
2022/12/03 10:47:31;;;;;;;24.23;10.90;;;2.50;99.90;;;;;;6318453;22;20058;-92
2022/12/03 10:50:25;;;;;;;19.45;9.27;;;2.50;99.90;;;;;;6340837;22;20021;-92
2022/12/03 10:52:58;;;;;;;20.45;9.88;;;2.40;99.90;;;;;;6327854;22;20018;-91
2022/12/03 10:55:27;;;;;;;17.48;9.63;;;2.50;99.90;;;;;;6327950;22;20053;-91
2022/12/03 10:58:16;;;;;;;20.73;10.02;;;3.90;99.90;;;;;;6303611;22;20030;-92
2022/12/03 11:00:42;;;;;;;21.52;10.68;;;2.50;99.90;;;;;;6335743;22;20018;-92
2022/12/03 11:03:48;;;;;;;20.45;10.20;;;2.50;99.90;;;;;;6304255;22;20010;-91
2022/12/03 11:06:19;;;;;;;22.95;10.98;;;2.50;99.90;;;;;;6323467;22;20057;-92
2022/12/03 11:08:50;;;;;;;20.20;10.00;;;2.50;99.90;;;;;;6315984;22;20014;-92
2022/12/03 11:11:28;;;;;;;21.60;10.20;;;2.50;99.90;;;;;;6316846;22;20097;-93
2022/12/03 11:17:49;;;;;;;18.88;9.13;;;2.50;99.90;;;;;;6342511;22;20100;-93
2022/12/03 11:27:56;;;;;;;20.63;9.93;;;2.50;99.90;;;;;;6371630;22;20013;-93
2022/12/03 11:34:19;;;;;;;17.42;9.70;;;2.50;99.90;;;;;;6343366;22;20031;-93
2022/12/03 11:37:10;;;;;;;20.88;11.30;;;2.50;99.90;;;;;;6315286;22;20101;-92
2022/12/03 11:39:50;;;;;;;22.17;9.80;;;2.50;99.90;;;;;;6317058;22;20053;-94
2022/12/03 11:46:46;;;;;;;23.17;10.55;;;2.50;99.90;;;;;;6339517;22;20366;-94
2022/12/03 11:53:15;;;;;;;20.63;11.05;;;2.30;99.90;;;;;;6339577;22;20021;-95
2022/12/03 11:56:11;;;;;;;20.63;11.15;;;2.40;99.90;;;;;;6311662;22;20034;-94
2022/12/03 11:58:45;;;;;;;20.77;10.20;;;2.40;99.90;;;;;;6312405;22;20089;-92
2022/12/03 12:01:48;;;;;;;21.77;10.48;;;2.70;99.90;;;;;;6312178;22;20016;-93
2022/12/03 12:04:53;;;;;;;20.92;10.57;;;2.40;99.90;;;;;;6311655;22;20019;-93
2022/12/03 12:07:36;;;;;;;23.13;10.30;;;2.40;99.90;;;;;;6312900;22;20019;-93
2022/12/03 12:10:44;;;;;;;21.85;11.38;;;2.40;99.90;;;;;;6311778;22;20023;-93
2022/12/03 12:17:11;;;;;;;20.15;10.07;;;1.70;99.90;;;;;;6337930;22;20015;-95
2022/12/03 12:19:41;;;;;;;21.30;9.85;;;2.30;99.90;;;;;;6312393;22;20099;-94
2022/12/03 12:22:26;;;;;;;22.48;8.88;;;2.40;99.90;;;;;;6313291;22;20340;-94
2022/12/03 12:25:47;;;;;;;22.02;10.05;;;2.50;99.90;;;;;;6317352;22;20023;-93
2022/12/03 12:28:14;;;;;;;20.65;10.95;;;;;;;;;;6225829;22;20027;-92
2022/12/03 12:41:15;;;;;;;23.27;10.00;;;2.40;99.90;;;;;;6184399;23;20032;-92
2022/12/03 12:44:22;;;;;;;21.92;11.15;;;2.50;99.90;;;;;;6134708;23;20021;-93
2022/12/03 13:07:58;;;;;;;20.20;9.65;;;1.10;99.90;;;;;;6203265;23;20017;-92
2022/12/03 13:11:01;;;;;;;19.52;10.40;;;1.70;99.90;;;;;;6183659;23;20514;-91
2022/12/03 13:17:31;;;;;;;20.52;9.98;;;3.00;99.90;;;;;;6185633;23;20035;-94
2022/12/03 13:19:57;;;;;;;21.20;10.52;;;2.20;99.90;;;;;;6136424;23;20092;-95
2022/12/03 13:23:04;;;;;;;22.17;11.07;;;2.10;99.90;;;;;;6183191;23;20021;-94
2022/12/03 13:25:38;;;;;;;22.92;10.77;;;2.20;99.90;;;;;;6183804;23;20032;-94
2022/12/03 13:28:06;;;;;;;25.63;12.07;;;2.20;99.90;;;;;;6183303;23;20028;-94
2022/12/03 13:30:33;;;;;;;21.70;11.13;;;2.10;99.90;;;;;;6180385;23;20195;-93
2022/12/03 13:33:07;;;;;;;20.73;10.88;;;2.20;99.90;;;;;;6130695;23;20024;-95
2022/12/03 13:35:38;;;;;;;19.83;10.20;;;2.20;99.90;;;;;;6206358;23;20028;-92
2022/12/03 13:38:46;;;;;;;19.10;10.18;;;2.10;99.90;;;;;;6181331;23;20017;-93
2022/12/03 13:48:30;;;;;;;18.80;10.40;;;2.20;99.90;;;;;;6214672;23;20058;-94
2022/12/03 13:51:13;;;;;;;23.83;11.27;;;2.10;99.90;;;;;;6213339;23;20454;-94
2022/12/03 13:53:39;;;;;;;22.95;11.93;;;2.00;99.90;;;;;;6212901;23;20141;-95
2022/12/03 14:03:21;;;;;;;;;;;;;;;;;;;;;
2022/12/03 14:13:10;;;;;;;21.92;11.10;;;1.80;99.90;;;;;;6214961;23;20019;-93
2022/12/03 14:18:47;;;;;;;20.95;11.32;;;;;;;;;;6238881;23;20085;-93
2022/12/03 14:21:52;;;;;;;22.10;10.90;;;1.90;99.90;;;;;;6190553;23;20162;-93
2022/12/03 14:24:56;;;;;;;19.13;11.15;;;1.80;99.90;;;;;;6190094;23;20020;-92
2022/12/03 14:27:23;;;;;;;23.02;10.73;;;1.90;99.90;;;;;;6190918;23;20023;-91
2022/12/03 14:29:50;;;;;;;21.60;10.75;;;1.80;99.90;;;;;;6215360;23;20017;-93
2022/12/03 14:32:54;;;;;;;24.30;12.70;;;2.70;99.90;;;;;;6215172;23;20017;-94
2022/12/03 14:35:40;;;;;;;22.90;11.10;;;1.80;99.90;;;;;;6195876;23;20550;-94
2022/12/03 14:38:09;;;;;;;21.17;11.50;;;1.20;99.90;;;;;;6224849;23;20017;-94
2022/12/03 14:40:40;;;;;;;23.33;11.07;;;1.70;99.90;;;;;;6183051;23;20017;-94
2022/12/03 14:43:06;;;;;;;25.15;12.50;;;1.80;99.90;;;;;;6207463;23;20024;-91
2022/12/03 14:45:33;;;;;;;24.80;12.93;;;1.70;99.90;;;;;;6198494;23;20076;-93
2022/12/03 14:48:07;;;;;;;27.90;12.27;;;1.70;99.90;;;;;;6241546;23;20095;-94
2022/12/03 14:54:27;;;;;;;26.55;12.27;;;1.60;99.90;;;;;;6214657;23;20103;-94
2022/12/03 14:56:55;;;;;;;25.50;12.38;;;1.70;99.90;;;;;;6241241;23;20051;-95
2022/12/03 15:05:22;;;;;;;22.88;11.15;;;;;;;;;;6250410;22;20020;-93
2022/12/03 15:07:48;;;;;;;23.03;11.30;;;1.60;99.90;;;;;;6244438;22;20434;-93
2022/12/03 15:10:38;;;;;;;21.30;10.15;;;1.50;99.90;;;;;;6226396;22;20299;-92
2022/12/03 15:20:42;;;;;;;21.50;10.65;;;1.60;99.90;;;;;;6277524;22;20106;-94
2022/12/03 15:23:29;;;;;;;27.70;11.65;;;1.50;99.90;;;;;;6250719;22;20016;-94
2022/12/03 15:25:57;;;;;;;22.27;11.18;;;1.50;99.90;;;;;;6249971;22;20016;-93
2022/12/03 15:28:28;;;;;;;23.33;11.07;;;0.70;99.90;;;;;;6247603;22;20016;-93
2022/12/03 15:37:43;;;;;;;21.60;10.88;;;1.40;99.90;;;;;;6275778;22;20028;-93
2022/12/03 15:40:28;;;;;;;24.10;12.25;;;1.40;99.90;;;;;;6252963;22;20020;-95
2022/12/03 15:42:58;;;;;;;24.35;11.07;;;1.50;99.90;;;;;;6250934;22;20051;-94
2022/12/03 15:46:02;;;;;;;23.70;11.93;;;1.50;99.90;;;;;;6250817;22;20019;-93
2022/12/03 15:49:05;;;;;;;22.25;10.63;;;1.60;99.90;;;;;;6252098;22;20020;-93
2022/12/03 15:52:11;;;;;;;22.98;11.70;;;1.50;99.90;;;;;;6251373;22;20023;-93
2022/12/03 15:54:39;;;;;;;23.70;11.38;;;1.50;99.90;;;;;;6250675;22;20038;-94
2022/12/03 16:01:05;;;;;;;23.30;10.82;;;1.40;99.90;;;;;;6277363;22;20014;-94
2022/12/03 16:03:36;;;;;;;20.63;10.70;;;0.30;99.90;;;;;;6250672;22;20098;-93
2022/12/03 16:12:49;;;;;;;21.42;10.85;;;1.60;99.90;;;;;;6276275;22;20024;-93
2022/12/03 16:19:30;;;;;;;24.40;12.10;;;1.60;99.90;;;;;;6276141;22;20024;-92
2022/12/03 16:22:36;;;;;;;20.75;9.80;;;1.60;99.90;;;;;;6249333;22;20383;-93
2022/12/03 16:25:04;;;;;;;20.70;10.45;;;1.50;99.90;;;;;;6249679;22;20023;-93
2022/12/03 16:28:14;;;;;;;23.00;10.88;;;1.50;99.90;;;;;;6249573;22;20019;-93
2022/12/03 16:34:22;;;;;;;21.48;10.05;;;1.60;99.90;;;;;;6276914;22;20093;-94
2022/12/03 16:37:16;;;;;;;27.40;11.80;;;1.40;99.90;;;;;;6250150;22;20012;-93
2022/12/03 16:43:26;;;;;;;28.27;11.95;;;1.70;99.90;;;;;;6275143;22;20076;-94
2022/12/03 16:49:05;;;;;;;23.63;12.25;;;1.40;99.90;;;;;;6277172;22;20081;-94
2022/12/03 18:34:00;;;;;;;24.25;10.95;;;1.20;99.90;;;;;;6272627;22;20077;-93
2022/12/03 19:50:43;;;;;;;;;;;;;;;;;;;;;
2022/12/03 19:53:35;;;;;;;;;;;;;;;;;;;;;
2022/12/03 19:56:53;;;;;;;24.83;10.65;;;1.30;99.90;;;;;;6251168;22;20016;-94
2022/12/03 19:59:28;;;;;;;;;;;;;;;;;;;;;
2022/12/03 20:02:07;;;;;;;;;;;;;;;;;;;;;
2022/12/03 20:08:49;;;;;;;;;;;;;;;;;;;;;
2022/12/03 20:12:01;;;;;;;;;;;;;;;;;;;;;
2022/12/03 20:23:49;;;;;;;;;;;;;;;;;;;;;
2022/12/03 20:27:06;;;;;;;;;;;;;;;;;;;;;
2022/12/03 20:29:46;;;;;;;22.48;11.68;;;1.30;99.90;;;;;;6233797;22;20023;-93
2022/12/03 20:32:45;;;;;;;;;;;;;;;;;;;;;
2022/12/03 20:36:22;;;;;;;;;;;;;;;;;;;;;
2022/12/03 20:38:49;;;;;;;28.38;13.35;;;1.30;99.90;;;;;;6241581;22;20019;-93
2022/12/03 20:41:51;;;;;;;;;;;;;;;;;;;;;
2022/12/03 20:44:55;;;;;;;27.00;11.85;;;1.30;99.90;;;;;;6230968;22;20020;-94
2022/12/03 20:48:00;;;;;;;26.08;13.23;;;1.30;99.90;;;;;;6226747;22;20081;-93
2022/12/03 20:50:26;;;;;;;24.00;13.55;;;1.20;99.90;;;;;;6227257;22;20015;-94
2022/12/03 20:56:41;;;;;;;23.30;11.55;;;1.40;99.90;;;;;;6280054;22;20449;-93
2022/12/03 20:59:13;;;;;;;24.42;12.70;;;0.40;99.90;;;;;;6204134;22;20482;-93
2022/12/03 21:01:41;;;;;;;23.13;12.80;;;1.40;99.90;;;;;;6226487;22;20019;-93
2022/12/03 21:04:26;;;;;;;24.77;11.95;;;1.20;99.90;;;;;;6201924;22;20069;-95
2022/12/03 21:06:52;;;;;;;26.40;12.20;;;1.10;99.90;;;;;;6216056;22;20018;-93
2022/12/03 21:09:21;;;;;;;25.67;12.80;;;;;;;;;;6225489;22;20114;-93
2022/12/03 21:12:06;;;;;;;25.10;12.48;;;1.10;99.90;;;;;;6252480;22;20024;-93
2022/12/03 21:18:19;;;;;;;23.05;12.05;;;1.00;99.90;;;;;;6278452;22;20022;-95
2022/12/03 21:20:47;;;;;;;25.17;12.32;;;0.80;99.90;;;;;;6251221;22;20069;-95
2022/12/03 21:23:13;;;;;;;;;;;0.90;99.90;;;;;;6223144;22;20052;-94
2022/12/03 21:25:39;;;;;;;21.95;11.52;;;0.90;99.90;;;;;;6304310;22;19929;-94
2022/12/03 21:28:07;;;;;;;28.58;14.13;;;0.70;99.90;;;;;;6275839;22;20099;-95
2022/12/03 21:33:16;;;;;;;28.70;13.25;;;0.80;99.90;;;;;;6365671;22;20037;-94
2022/12/03 21:35:48;;;;;;;27.48;12.65;;;0.70;99.90;;;;;;6295606;22;20022;-95
2022/12/03 21:38:14;;;;;;;25.83;13.57;;;0.70;99.90;;;;;;6294772;22;20097;-93
2022/12/03 21:40:42;;;;;;;30.05;14.60;;;0.60;99.90;;;;;;6293158;22;20045;-94
2022/12/03 21:53:31;;;;;;;27.80;14.23;;;0.50;99.90;;;;;;6339279;22;20022;-95
2022/12/03 22:02:51;;;;;;;29.55;13.90;;;0.40;99.90;;;;;;6319275;22;20026;-94
2022/12/03 22:06:05;;;;;;;29.30;13.20;;;0.50;99.90;;;;;;6298457;22;20019;-93
2022/12/03 22:08:33;;;;;;;30.98;13.57;;;0.60;99.90;;;;;;6323092;22;20441;-94
2022/12/03 22:11:21;;;;;;;30.42;13.90;;;0.50;99.90;;;;;;6329670;22;20015;-94
2022/12/03 22:13:48;;;;;;;28.50;14.30;;;0.50;99.90;;;;;;6334403;22;20018;-94
2022/12/03 22:19:55;;;;;;;29.40;13.77;;;0.50;99.90;;;;;;6386588;22;20017;-93
2022/12/03 22:23:02;;;;;;;28.10;15.00;;;1.10;99.90;;;;;;6353364;22;20085;-94
2022/12/03 22:37:09;;;;;;;23.23;12.18;;;0.50;99.90;;;;;;6377903;22;20104;-94
2022/12/03 22:53:40;;;;;;;29.02;12.35;;;0.50;99.90;;;;;;6339225;22;20071;-94
2022/12/03 22:56:29;;;;;;;26.63;13.48;;;0.50;99.90;;;;;;6315212;22;20019;-93
2022/12/03 22:59:18;;;;;;;23.40;12.40;;;0.00;99.90;;;;;;6290050;22;20072;-94